MONTICARGO VIRTUAL AIRLINES



 METAR AND TAF INFORMATION
METAR FOR LIRF
ADDS - METARS form results

(1732 UTC 26 November 2022)
Data provider http://aviationweather.gov/metar/data/
 
METAR text: LIRF 261720Z 03013KT CAVOK 13/04 Q1018 NOSIG
Conditions at: LIRF (ROME/FIUMICINO , IT) observed 1720 UTC 26 November 2022
Temperature: 13.0°C (55°F)
Dewpoint: 4.0°C (39°F) [RH = 54%]
Pressure (altimeter): 30.06 inches Hg (1018.0 mb)
Winds: from the NNE (30 degrees) at 15 MPH (13 knots; 6.7 m/s)
Visibility: 6 or more miles (10+ km)
Ceiling: ceiling and visibility are OK
Clouds: unknown
Weather: no significant weather observed at this time

METAR text: LIRF 261650Z 03011KT CAVOK 14/04 Q1018 NOSIG
Conditions at: LIRF (ROME/FIUMICINO , IT) observed 1650 UTC 26 November 2022
Temperature: 14.0°C (57°F)
Dewpoint: 4.0°C (39°F) [RH = 51%]
Pressure (altimeter): 30.06 inches Hg (1018.0 mb)
Winds: from the NNE (30 degrees) at 13 MPH (11 knots; 5.7 m/s)
Visibility: 6 or more miles (10+ km)
Ceiling: ceiling and visibility are OK
Clouds: unknown
Weather: no significant weather observed at this time

Forecast for: LIRF (ROME/FIUMICINO , IT)
Text: TAF LIRF 261700Z 2618/2724 03015KT 9999 SCT030
Forecast period: 1800 UTC 26 November 2022 to 1800 UTC 27 November 2022
Forecast type: FROM: standard forecast or significant change
Winds: from the NNE (30 degrees) at 17 MPH (15 knots; 7.7 m/s)
Visibility: 6 or more miles (10+ km)
Ceiling: at least 12,000 feet AGL
Clouds: scattered clouds at 3000 feet AGL
Weather: no significant weather forecast for this period
Text: BECMG 2718/2720 04005KT
Forecast period: 1800 UTC 27 November 2022 to 0000 UTC 28 November 2022
Forecast type: BECOMING: Conditions expected to become as follows by 2000 UTC 27 November 2022
Winds: from the NE (40 degrees) at 6 MPH (5 knots; 2.6 m/s)
Visibility: 6 or more miles (10+ km)
Ceiling: at least 12,000 feet AGL
Clouds: scattered clouds at 3000 feet AGL
Weather: no significant weather forecast for this period

 AIRPORT MAP

 RUNWAY INFORMATION